Terminal Aerodrome Forecast
Issued by NWS

Home | Current Version | Previous Version | Text Only | Print | Product List | Glossary On
Versions: 1 2 3 4 5 6 7 8 9 10 11 12 13 14 15 16 17
000
FTUS44 KLZK 030500
TAFBPK
TAF
KBPK 030533Z 0306/0406 VRB04KT P6SM VCTS SCT040CB BKN100 OVC250
      TEMPO 0306/0308 -TSRA SCT025 OVC040CB
     FM030800 27005KT P6SM VCSH SCT035 BKN080 OVC250
      TEMPO 0308/0312 3SM BR SCT020
     FM031600 32006KT P6SM VCTS SCT035 BKN050CB OVC250=

USA.gov is the U.S. government's official web portal to all federal, state and local government web resources and services.